09/12/2018 SO1 FAP ARQQUI POMA ROBERTO
 Share
The version of the browser you are using is no longer supported. Please upgrade to a supported browser.Dismiss

 
View only
 
 
ABCDEFGHIJKLMNOPQR
1
ICAOServicioReporte1112131415161718192021222300HORA
2
SPLCSO2 FAP ARAUJO ESCALANTE Johanna VioletaMETAR SPLC 091200Z 00000KT00 CAVOK 18/10 Q1022 10010010010010010010010010010010010010010012
3
SPRMSO2 FAP GALVAN CERRON DenysMETAR SPRM 091200Z 00000KT 9999 FEW010-- 90909497979797979597100100100
4
SPVRSO1 FAP ARIAS ENCISO Dany JesusMETAR SPVR 091200Z 00000KT 9999 FEW100 18/5 Q1015 9710010010010010010010010010010010010010019
5
SPHITC2 FAP MUÑOZ ZAPATA Rodolfo ErnestoMETAR SPHI 091200Z 18004KT 9999 OVC020 20/17 Q1014 7070100100100100100100100100100
6
SPIDSO3 FAP HILARES HILARES Yoselin MilenkaMETAR SPID 091200Z 00000KT 9000 BCFG BKN010 OVC080-- Q1014 64656771717272748282919191
7
SPSOSO1 FAP CHICANA GÓNGORA Josef MerlínMETAR SPSO 091200Z 34006KT 8000 SCT010 OVC014 20/17 Q1013 60547070748592929110010010010090
8
SPMFSO3 FAP RAMOS CIPRIAN Rose MarieMETAR SPMF 091200Z 00000KT 5000 BCFG BKN010 OVC040-- 5945648590909090929595979795
9
SPURSO2 FAP MUNIVE JALIXTO BaltazarMETAR SPUR 091200Z 17003KT 9999 BKN025 21/16 Q1013 818185959797100100100100100100100100
10
SPTUTC3 FAP GARCIA GRADOS Christhian Adolfo
11
SPTPSO3 FAP YATACO CASTILLA Carlos Javier
12
SPEVTIP FAP RAMIREZ LLANOS Henry Carlos
METAR SPEV 091200Z 00000KT 9999 SCT060 SCT100 25/22 Q1018 RMK C CUB X SC Y P VIS
100100100100100100100100100100100100
13
SPHRTC2 FAP CERON HUANCA Owell EliasMETAR SPHR 091200Z 00000KT 7000 BCFG FEW010 OVC020-- 635575878790909090909595100100
14
SPLPSO2 FAP ROMERO RAFFO Cesar Andrés METAR SPLP 091200Z 00000KT 8000 BKN017 20/18 Q1013 5965929210010010010087959290100
15
SPVSTC2 FAP TAPIA MORALES Walter
METAR SPVS 091200Z 00000KT 9000 SCT020 OVC060 24/23 Q1015 RMK C Y P VIS
7380807580838378808592949487
16
SPQKTC2 FAP MARTINEZ PINTO Marcos AlfredoMETAR SPQK 091200Z 00000KT 9000 SCT025 OVC060-- 75838787878787100100100100100100100
17
SPVDTC3 FAP AGUILAR URIARTE Marlon EnriqueMETAR SPVD 091200Z 00000KT 0800 FG BKN025-- 2335408285829292929292100100100
18
SPSTSO2 FAP VILCHEZ MACALUPU Edinson Erick
19
SPNKSO2 FAP CASTILLON CARBONERO Sharly JhoselMETAR SPNK 091200Z 30006KT 9999 FEW018-- 929292
20
SPMQSO3 FAP LAURA ORMEÑO Jubitza GeraldineMETAR SPMQ 091200Z 00000KT 9999 FEW060-- 10010010010010010010010010010010010010097
21
SPPQSO1 FAP RAMOS ANCHELIA Johnson FreyreMETAR SPPQ 091200Z 00000KT 8000 4000S BCFG BKN040-- 5883958586879090929295959797
22
SPQISO3 FAP MENDOZA HUAMAN Carlos JavierMETAR SPQI 091200Z 00000KT 4000 BCFG SCT010 BKN040 OVC070-- 635038
23
SPVNSO2 FAP DELGADO LUYO Miguel AngelMETAR SPVN 091200Z 00000KT 7000 BCFG SCT060-- 80858590100100100100100100100100100100
24
SPDYSO1 FAP HUARI CASTILLON Carlos EnriqueMETAR SPDY 091200Z 00000KT 9999 FEW010-- 9790
25
SPBCTC2 FAP GOGUET ALVAN Pierre MoisesMETAR SPBC 091200Z 00000KT 5000 BR SCT010 BKN090-- 55554545455757627177777777
26
SPEETC2 FAP QUISPE ANCCO Edwin CarlosMETAR SPEE 091200Z 00000KT 8000 HZ BKN012 OVC080-- 62626274747474768787878787
27
SPDNSO2 FAP HERMITAÑO SALVADOR Marco AntonioMETAR SPDN 091200Z 00000KT 4000 BR BKN010 OVC080-- 35406159596071625062737483
28
SPQMSO2 FAP SAAVEDRA REATEGUI Jhon Freddy
29
30
https://drive.google.com/open?id=1_s92YBK3FiKT8-rxTRaT_mdKEHw
31
MALAS CONDICIONES
OPTIMAS COND.
32
0102030405060708090100
33
MIN. COND. VIS (VFR)
34
35
36
37
38
39
40
41
42
43
44
45
46
47
48
49
50
51
52
53
54
Loading...
Main menu